sensor_id;sensor_type;location;lat;lon;timestamp;P1;durP1;ratioP1;P2;durP2;ratioP2
17504;SDS011;8870;50.950;11.762;2022-10-12T00:02:24;6.00;;;1.83;;
17504;SDS011;8870;50.950;11.762;2022-10-12T00:07:56;6.30;;;2.38;;
17504;SDS011;8870;50.950;11.762;2022-10-12T00:13:14;5.22;;;2.10;;
17504;SDS011;8870;50.950;11.762;2022-10-12T00:18:50;10.00;;;2.78;;
17504;SDS011;8870;50.950;11.762;2022-10-12T00:24:09;8.13;;;2.60;;
17504;SDS011;8870;50.950;11.762;2022-10-12T00:29:41;7.72;;;2.40;;
17504;SDS011;8870;50.950;11.762;2022-10-12T00:35:02;8.63;;;2.97;;
17504;SDS011;8870;50.950;11.762;2022-10-12T00:40:35;5.45;;;2.33;;
17504;SDS011;8870;50.950;11.762;2022-10-12T00:45:54;7.20;;;2.20;;
17504;SDS011;8870;50.950;11.762;2022-10-12T00:51:28;7.53;;;2.30;;
17504;SDS011;8870;50.950;11.762;2022-10-12T00:56:46;5.82;;;2.60;;
17504;SDS011;8870;50.950;11.762;2022-10-12T01:02:21;10.90;;;3.03;;
17504;SDS011;8870;50.950;11.762;2022-10-12T01:07:44;7.47;;;2.88;;
17504;SDS011;8870;50.950;11.762;2022-10-12T01:13:16;9.57;;;3.00;;
17504;SDS011;8870;50.950;11.762;2022-10-12T01:18:38;8.30;;;2.80;;
17504;SDS011;8870;50.950;11.762;2022-10-12T01:24:29;7.18;;;2.80;;
17504;SDS011;8870;50.950;11.762;2022-10-12T01:30:04;7.97;;;3.00;;
17504;SDS011;8870;50.950;11.762;2022-10-12T01:35:45;7.65;;;2.80;;
17504;SDS011;8870;50.950;11.762;2022-10-12T01:41:12;11.07;;;2.88;;
17504;SDS011;8870;50.950;11.762;2022-10-12T01:46:49;10.02;;;2.90;;
17504;SDS011;8870;50.950;11.762;2022-10-12T01:52:20;10.90;;;3.17;;
17504;SDS011;8870;50.950;11.762;2022-10-12T01:58:02;9.70;;;3.00;;
17504;SDS011;8870;50.950;11.762;2022-10-12T02:03:43;6.15;;;2.90;;
17504;SDS011;8870;50.950;11.762;2022-10-12T02:09:21;10.23;;;3.13;;
17504;SDS011;8870;50.950;11.762;2022-10-12T02:14:44;10.35;;;3.40;;
17504;SDS011;8870;50.950;11.762;2022-10-12T02:20:19;6.57;;;2.65;;
17504;SDS011;8870;50.950;11.762;2022-10-12T02:25:47;10.55;;;3.00;;
17504;SDS011;8870;50.950;11.762;2022-10-12T02:31:23;4.97;;;2.30;;
17504;SDS011;8870;50.950;11.762;2022-10-12T02:36:54;7.20;;;2.38;;
17504;SDS011;8870;50.950;11.762;2022-10-12T02:42:32;5.72;;;2.42;;
17504;SDS011;8870;50.950;11.762;2022-10-12T02:48:16;6.30;;;2.38;;
17504;SDS011;8870;50.950;11.762;2022-10-12T02:53:53;6.07;;;2.90;;
17504;SDS011;8870;50.950;11.762;2022-10-12T02:59:12;6.90;;;2.70;;
17504;SDS011;8870;50.950;11.762;2022-10-12T03:04:44;7.60;;;2.47;;
17504;SDS011;8870;50.950;11.762;2022-10-12T03:10:05;6.07;;;2.33;;
17504;SDS011;8870;50.950;11.762;2022-10-12T03:15:37;8.05;;;2.85;;
17504;SDS011;8870;50.950;11.762;2022-10-12T03:20:55;8.13;;;2.92;;
17504;SDS011;8870;50.950;11.762;2022-10-12T03:26:29;6.68;;;2.70;;
17504;SDS011;8870;50.950;11.762;2022-10-12T03:31:48;7.03;;;2.50;;
17504;SDS011;8870;50.950;11.762;2022-10-12T03:37:19;7.43;;;2.50;;
17504;SDS011;8870;50.950;11.762;2022-10-12T03:42:40;8.13;;;2.55;;
17504;SDS011;8870;50.950;11.762;2022-10-12T03:48:11;7.88;;;2.65;;
17504;SDS011;8870;50.950;11.762;2022-10-12T03:53:29;11.35;;;3.70;;
17504;SDS011;8870;50.950;11.762;2022-10-12T03:59:03;10.98;;;3.67;;
17504;SDS011;8870;50.950;11.762;2022-10-12T04:04:23;14.30;;;4.90;;
17504;SDS011;8870;50.950;11.762;2022-10-12T04:10:04;11.77;;;4.78;;
17504;SDS011;8870;50.950;11.762;2022-10-12T04:15:30;7.13;;;3.80;;
17504;SDS011;8870;50.950;11.762;2022-10-12T04:21:01;10.52;;;3.50;;
17504;SDS011;8870;50.950;11.762;2022-10-12T04:26:20;8.52;;;3.20;;
17504;SDS011;8870;50.950;11.762;2022-10-12T04:31:55;5.60;;;3.00;;
17504;SDS011;8870;50.950;11.762;2022-10-12T04:37:19;6.35;;;2.90;;
17504;SDS011;8870;50.950;11.762;2022-10-12T04:42:51;7.50;;;3.50;;
17504;SDS011;8870;50.950;11.762;2022-10-12T04:48:12;6.40;;;3.50;;
17504;SDS011;8870;50.950;11.762;2022-10-12T04:53:44;8.20;;;3.53;;
17504;SDS011;8870;50.950;11.762;2022-10-12T04:59:02;7.55;;;3.60;;
17504;SDS011;8870;50.950;11.762;2022-10-12T05:04:36;7.07;;;3.80;;
17504;SDS011;8870;50.950;11.762;2022-10-12T05:09:55;7.97;;;3.95;;
17504;SDS011;8870;50.950;11.762;2022-10-12T05:15:26;8.93;;;4.00;;
17504;SDS011;8870;50.950;11.762;2022-10-12T05:20:47;8.55;;;4.10;;
17504;SDS011;8870;50.950;11.762;2022-10-12T05:26:18;7.00;;;3.50;;
17504;SDS011;8870;50.950;11.762;2022-10-12T05:31:45;6.93;;;4.18;;
17504;SDS011;8870;50.950;11.762;2022-10-12T05:37:18;9.07;;;4.30;;
17504;SDS011;8870;50.950;11.762;2022-10-12T05:42:37;9.02;;;3.83;;
17504;SDS011;8870;50.950;11.762;2022-10-12T05:48:09;7.25;;;3.53;;
17504;SDS011;8870;50.950;11.762;2022-10-12T05:53:30;6.60;;;3.60;;
17504;SDS011;8870;50.950;11.762;2022-10-12T05:59:02;11.15;;;4.55;;
17504;SDS011;8870;50.950;11.762;2022-10-12T06:04:20;7.10;;;4.10;;
17504;SDS011;8870;50.950;11.762;2022-10-12T06:09:53;10.18;;;4.63;;
17504;SDS011;8870;50.950;11.762;2022-10-12T06:15:12;11.27;;;5.10;;
17504;SDS011;8870;50.950;11.762;2022-10-12T06:20:44;10.95;;;5.28;;
17504;SDS011;8870;50.950;11.762;2022-10-12T06:26:34;7.07;;;3.85;;
17504;SDS011;8870;50.950;11.762;2022-10-12T06:32:06;8.77;;;3.65;;
17504;SDS011;8870;50.950;11.762;2022-10-12T06:37:24;6.88;;;3.38;;
17504;SDS011;8870;50.950;11.762;2022-10-12T06:43:06;6.20;;;3.35;;
17504;SDS011;8870;50.950;11.762;2022-10-12T06:48:25;7.18;;;3.53;;
17504;SDS011;8870;50.950;11.762;2022-10-12T06:53:56;5.93;;;3.20;;
17504;SDS011;8870;50.950;11.762;2022-10-12T06:59:17;7.72;;;3.17;;
17504;SDS011;8870;50.950;11.762;2022-10-12T07:04:48;3.60;;;2.83;;
17504;SDS011;8870;50.950;11.762;2022-10-12T07:10:07;8.45;;;3.13;;
17504;SDS011;8870;50.950;11.762;2022-10-12T07:15:41;8.32;;;3.17;;
17504;SDS011;8870;50.950;11.762;2022-10-12T07:21:05;4.35;;;3.10;;
17504;SDS011;8870;50.950;11.762;2022-10-12T07:26:36;9.43;;;3.50;;
17504;SDS011;8870;50.950;11.762;2022-10-12T07:31:57;6.32;;;3.40;;
17504;SDS011;8870;50.950;11.762;2022-10-12T07:37:28;9.55;;;2.90;;
17504;SDS011;8870;50.950;11.762;2022-10-12T07:42:46;8.43;;;3.25;;
17504;SDS011;8870;50.950;11.762;2022-10-12T07:48:32;7.20;;;2.80;;
17504;SDS011;8870;50.950;11.762;2022-10-12T07:53:57;6.15;;;2.92;;
17504;SDS011;8870;50.950;11.762;2022-10-12T07:59:35;19.17;;;3.43;;
17504;SDS011;8870;50.950;11.762;2022-10-12T08:04:56;5.30;;;2.42;;
17504;SDS011;8870;50.950;11.762;2022-10-12T08:10:27;6.90;;;2.60;;
17504;SDS011;8870;50.950;11.762;2022-10-12T08:15:47;8.32;;;2.63;;
17504;SDS011;8870;50.950;11.762;2022-10-12T08:21:21;7.47;;;2.55;;
17504;SDS011;8870;50.950;11.762;2022-10-12T08:26:40;5.45;;;2.50;;
17504;SDS011;8870;50.950;11.762;2022-10-12T08:37:42;8.13;;;2.60;;
17504;SDS011;8870;50.950;11.762;2022-10-12T08:43:14;18.90;;;5.45;;
17504;SDS011;8870;50.950;11.762;2022-10-12T08:54:18;5.60;;;2.53;;
17504;SDS011;8870;50.950;11.762;2022-10-12T08:59:52;5.88;;;2.40;;
17504;SDS011;8870;50.950;11.762;2022-10-12T09:05:11;5.22;;;2.60;;
17504;SDS011;8870;50.950;11.762;2022-10-12T09:10:52;6.20;;;3.38;;
17504;SDS011;8870;50.950;11.762;2022-10-12T09:16:18;9.68;;;3.05;;
17504;SDS011;8870;50.950;11.762;2022-10-12T09:21:52;7.60;;;2.45;;
17504;SDS011;8870;50.950;11.762;2022-10-12T09:27:14;7.30;;;2.70;;
17504;SDS011;8870;50.950;11.762;2022-10-12T09:33:04;6.60;;;2.60;;
17504;SDS011;8870;50.950;11.762;2022-10-12T09:38:28;5.38;;;2.80;;
17504;SDS011;8870;50.950;11.762;2022-10-12T09:44:04;4.15;;;2.38;;
17504;SDS011;8870;50.950;11.762;2022-10-12T09:49:26;9.35;;;2.65;;
17504;SDS011;8870;50.950;11.762;2022-10-12T09:55:18;6.80;;;2.20;;
17504;SDS011;8870;50.950;11.762;2022-10-12T10:00:43;5.57;;;2.10;;
17504;SDS011;8870;50.950;11.762;2022-10-12T10:06:14;6.82;;;2.17;;
17504;SDS011;8870;50.950;11.762;2022-10-12T10:11:40;4.43;;;1.80;;
17504;SDS011;8870;50.950;11.762;2022-10-12T10:17:16;6.78;;;2.35;;
17504;SDS011;8870;50.950;11.762;2022-10-12T10:22:45;6.22;;;2.10;;
17504;SDS011;8870;50.950;11.762;2022-10-12T10:28:20;4.70;;;2.10;;
17504;SDS011;8870;50.950;11.762;2022-10-12T10:33:43;6.25;;;2.10;;
17504;SDS011;8870;50.950;11.762;2022-10-12T10:39:18;7.68;;;2.10;;
17504;SDS011;8870;50.950;11.762;2022-10-12T10:44:47;5.78;;;1.90;;
17504;SDS011;8870;50.950;11.762;2022-10-12T10:50:25;6.47;;;1.92;;
17504;SDS011;8870;50.950;11.762;2022-10-12T10:55:46;6.90;;;1.60;;
17504;SDS011;8870;50.950;11.762;2022-10-12T11:01:22;8.57;;;1.90;;
17504;SDS011;8870;50.950;11.762;2022-10-12T11:06:51;4.55;;;1.42;;
17504;SDS011;8870;50.950;11.762;2022-10-12T11:12:28;4.72;;;1.70;;
17504;SDS011;8870;50.950;11.762;2022-10-12T11:17:51;4.45;;;1.60;;
17504;SDS011;8870;50.950;11.762;2022-10-12T11:23:30;7.60;;;1.90;;
17504;SDS011;8870;50.950;11.762;2022-10-12T11:28:56;8.20;;;1.50;;
17504;SDS011;8870;50.950;11.762;2022-10-12T11:34:41;6.30;;;1.83;;
17504;SDS011;8870;50.950;11.762;2022-10-12T11:40:14;5.00;;;1.80;;
17504;SDS011;8870;50.950;11.762;2022-10-12T11:46:10;3.88;;;1.60;;
17504;SDS011;8870;50.950;11.762;2022-10-12T11:51:45;3.75;;;1.40;;
17504;SDS011;8870;50.950;11.762;2022-10-12T11:57:10;5.28;;;1.58;;
17504;SDS011;8870;50.950;11.762;2022-10-12T12:02:44;5.60;;;1.50;;
17504;SDS011;8870;50.950;11.762;2022-10-12T12:08:06;9.88;;;1.60;;
17504;SDS011;8870;50.950;11.762;2022-10-12T12:13:53;4.20;;;1.60;;
17504;SDS011;8870;50.950;11.762;2022-10-12T12:19:46;4.38;;;1.58;;
17504;SDS011;8870;50.950;11.762;2022-10-12T12:25:22;12.07;;;1.70;;
17504;SDS011;8870;50.950;11.762;2022-10-12T12:30:56;4.15;;;1.50;;
17504;SDS011;8870;50.950;11.762;2022-10-12T12:36:31;4.78;;;1.80;;
17504;SDS011;8870;50.950;11.762;2022-10-12T12:41:57;4.72;;;1.50;;
17504;SDS011;8870;50.950;11.762;2022-10-12T12:47:39;5.70;;;1.85;;
17504;SDS011;8870;50.950;11.762;2022-10-12T12:53:00;5.28;;;1.73;;
17504;SDS011;8870;50.950;11.762;2022-10-12T12:58:41;5.70;;;2.00;;
17504;SDS011;8870;50.950;11.762;2022-10-12T13:04:19;4.40;;;1.60;;
17504;SDS011;8870;50.950;11.762;2022-10-12T13:10:09;5.72;;;1.80;;
17504;SDS011;8870;50.950;11.762;2022-10-12T13:15:43;5.35;;;1.92;;
17504;SDS011;8870;50.950;11.762;2022-10-12T13:21:28;3.22;;;1.60;;
17504;SDS011;8870;50.950;11.762;2022-10-12T13:26:57;4.53;;;1.50;;
17504;SDS011;8870;50.950;11.762;2022-10-12T13:32:37;3.95;;;1.50;;
17504;SDS011;8870;50.950;11.762;2022-10-12T13:38:16;4.70;;;1.70;;
17504;SDS011;8870;50.950;11.762;2022-10-12T13:43:50;3.85;;;1.30;;
17504;SDS011;8870;50.950;11.762;2022-10-12T13:49:24;3.97;;;1.60;;
17504;SDS011;8870;50.950;11.762;2022-10-12T13:54:46;3.30;;;1.40;;
17504;SDS011;8870;50.950;11.762;2022-10-12T14:00:20;3.35;;;1.40;;
17504;SDS011;8870;50.950;11.762;2022-10-12T14:05:44;3.78;;;1.50;;
17504;SDS011;8870;50.950;11.762;2022-10-12T14:11:21;3.97;;;1.40;;
17504;SDS011;8870;50.950;11.762;2022-10-12T14:16:39;3.67;;;1.50;;
17504;SDS011;8870;50.950;11.762;2022-10-12T14:22:11;4.65;;;1.70;;
17504;SDS011;8870;50.950;11.762;2022-10-12T14:27:38;4.18;;;1.50;;
17504;SDS011;8870;50.950;11.762;2022-10-12T14:33:10;4.88;;;1.38;;
17504;SDS011;8870;50.950;11.762;2022-10-12T14:38:38;2.83;;;1.33;;
17504;SDS011;8870;50.950;11.762;2022-10-12T14:44:20;96.20;;;5.25;;
17504;SDS011;8870;50.950;11.762;2022-10-12T14:49:53;6.00;;;1.63;;
17504;SDS011;8870;50.950;11.762;2022-10-12T14:55:16;4.55;;;1.50;;
17504;SDS011;8870;50.950;11.762;2022-10-12T15:00:53;2.72;;;1.30;;
17504;SDS011;8870;50.950;11.762;2022-10-12T15:06:14;4.68;;;1.40;;
17504;SDS011;8870;50.950;11.762;2022-10-12T15:11:45;3.63;;;1.50;;
17504;SDS011;8870;50.950;11.762;2022-10-12T15:17:07;3.95;;;1.50;;
17504;SDS011;8870;50.950;11.762;2022-10-12T15:22:44;4.40;;;1.50;;
17504;SDS011;8870;50.950;11.762;2022-10-12T15:28:02;4.88;;;1.27;;
17504;SDS011;8870;50.950;11.762;2022-10-12T15:33:39;3.58;;;1.48;;
17504;SDS011;8870;50.950;11.762;2022-10-12T15:38:58;5.82;;;1.30;;
17504;SDS011;8870;50.950;11.762;2022-10-12T15:44:30;4.07;;;1.40;;
17504;SDS011;8870;50.950;11.762;2022-10-12T15:49:56;3.33;;;1.30;;
17504;SDS011;8870;50.950;11.762;2022-10-12T15:55:27;4.97;;;1.70;;
17504;SDS011;8870;50.950;11.762;2022-10-12T16:00:48;4.28;;;1.60;;
17504;SDS011;8870;50.950;11.762;2022-10-12T16:06:24;6.03;;;1.50;;
17504;SDS011;8870;50.950;11.762;2022-10-12T16:11:43;3.40;;;1.40;;
17504;SDS011;8870;50.950;11.762;2022-10-12T16:17:16;4.20;;;1.60;;
17504;SDS011;8870;50.950;11.762;2022-10-12T16:22:37;4.10;;;1.63;;
17504;SDS011;8870;50.950;11.762;2022-10-12T16:28:08;6.07;;;1.95;;
17504;SDS011;8870;50.950;11.762;2022-10-12T16:33:28;4.55;;;1.80;;
17504;SDS011;8870;50.950;11.762;2022-10-12T16:39:03;6.35;;;1.98;;
17504;SDS011;8870;50.950;11.762;2022-10-12T16:44:21;4.22;;;1.83;;
17504;SDS011;8870;50.950;11.762;2022-10-12T16:49:52;4.60;;;1.65;;
17504;SDS011;8870;50.950;11.762;2022-10-12T16:55:15;6.90;;;1.80;;
17504;SDS011;8870;50.950;11.762;2022-10-12T17:00:48;4.63;;;1.70;;
17504;SDS011;8870;50.950;11.762;2022-10-12T17:06:09;7.28;;;1.90;;
17504;SDS011;8870;50.950;11.762;2022-10-12T17:11:45;4.57;;;1.90;;
17504;SDS011;8870;50.950;11.762;2022-10-12T17:17:04;8.88;;;1.92;;
17504;SDS011;8870;50.950;11.762;2022-10-12T17:22:35;5.50;;;1.95;;
17504;SDS011;8870;50.950;11.762;2022-10-12T17:27:57;4.72;;;1.95;;
17504;SDS011;8870;50.950;11.762;2022-10-12T17:33:28;5.50;;;1.98;;
17504;SDS011;8870;50.950;11.762;2022-10-12T17:38:54;6.47;;;2.20;;
17504;SDS011;8870;50.950;11.762;2022-10-12T17:44:30;3.88;;;1.83;;
17504;SDS011;8870;50.950;11.762;2022-10-12T17:50:03;4.57;;;2.15;;
17504;SDS011;8870;50.950;11.762;2022-10-12T17:55:22;6.28;;;2.50;;
17504;SDS011;8870;50.950;11.762;2022-10-12T18:01:15;7.10;;;2.28;;
17504;SDS011;8870;50.950;11.762;2022-10-12T18:06:33;5.88;;;2.40;;
17504;SDS011;8870;50.950;11.762;2022-10-12T18:12:06;6.63;;;2.28;;
17504;SDS011;8870;50.950;11.762;2022-10-12T18:17:28;5.57;;;2.30;;
17504;SDS011;8870;50.950;11.762;2022-10-12T18:22:59;7.82;;;2.15;;
17504;SDS011;8870;50.950;11.762;2022-10-12T18:28:17;6.88;;;2.38;;
17504;SDS011;8870;50.950;11.762;2022-10-12T18:33:51;6.80;;;1.90;;
17504;SDS011;8870;50.950;11.762;2022-10-12T18:39:12;5.57;;;2.28;;
17504;SDS011;8870;50.950;11.762;2022-10-12T18:44:43;4.35;;;1.95;;
17504;SDS011;8870;50.950;11.762;2022-10-12T18:50:04;7.15;;;2.42;;
17504;SDS011;8870;50.950;11.762;2022-10-12T18:55:36;6.05;;;2.22;;
17504;SDS011;8870;50.950;11.762;2022-10-12T19:00:55;6.63;;;2.30;;
17504;SDS011;8870;50.950;11.762;2022-10-12T19:06:33;6.97;;;2.15;;
17504;SDS011;8870;50.950;11.762;2022-10-12T19:11:52;6.45;;;2.03;;
17504;SDS011;8870;50.950;11.762;2022-10-12T19:17:23;5.93;;;2.25;;
17504;SDS011;8870;50.950;11.762;2022-10-12T19:22:44;6.97;;;2.47;;
17504;SDS011;8870;50.950;11.762;2022-10-12T19:28:16;4.57;;;2.10;;
17504;SDS011;8870;50.950;11.762;2022-10-12T19:33:35;5.80;;;2.22;;
17504;SDS011;8870;50.950;11.762;2022-10-12T19:39:11;7.35;;;2.55;;
17504;SDS011;8870;50.950;11.762;2022-10-12T19:44:31;8.98;;;2.47;;
17504;SDS011;8870;50.950;11.762;2022-10-12T19:50:02;6.25;;;2.47;;
17504;SDS011;8870;50.950;11.762;2022-10-12T19:55:25;5.88;;;2.30;;
17504;SDS011;8870;50.950;11.762;2022-10-12T20:00:59;4.47;;;2.53;;
17504;SDS011;8870;50.950;11.762;2022-10-12T20:06:19;6.63;;;2.85;;
17504;SDS011;8870;50.950;11.762;2022-10-12T20:11:54;5.97;;;2.55;;
17504;SDS011;8870;50.950;11.762;2022-10-12T20:17:12;6.22;;;2.70;;
17504;SDS011;8870;50.950;11.762;2022-10-12T20:22:43;7.65;;;3.25;;
17504;SDS011;8870;50.950;11.762;2022-10-12T20:28:04;10.15;;;3.22;;
17504;SDS011;8870;50.950;11.762;2022-10-12T20:33:37;5.90;;;2.92;;
17504;SDS011;8870;50.950;11.762;2022-10-12T20:38:55;7.50;;;3.40;;
17504;SDS011;8870;50.950;11.762;2022-10-12T20:44:29;7.68;;;2.50;;
17504;SDS011;8870;50.950;11.762;2022-10-12T20:50:00;9.50;;;3.20;;
17504;SDS011;8870;50.950;11.762;2022-10-12T20:55:18;7.50;;;3.25;;
17504;SDS011;8870;50.950;11.762;2022-10-12T21:00:52;9.80;;;3.35;;
17504;SDS011;8870;50.950;11.762;2022-10-12T21:06:18;7.32;;;3.08;;
17504;SDS011;8870;50.950;11.762;2022-10-12T21:11:50;6.47;;;2.92;;
17504;SDS011;8870;50.950;11.762;2022-10-12T21:17:11;8.25;;;3.47;;
17504;SDS011;8870;50.950;11.762;2022-10-12T21:22:43;8.90;;;3.00;;
17504;SDS011;8870;50.950;11.762;2022-10-12T21:28:01;8.30;;;3.38;;
17504;SDS011;8870;50.950;11.762;2022-10-12T21:33:35;6.20;;;3.05;;
17504;SDS011;8870;50.950;11.762;2022-10-12T21:38:54;8.95;;;3.10;;
17504;SDS011;8870;50.950;11.762;2022-10-12T21:44:26;6.47;;;3.13;;
17504;SDS011;8870;50.950;11.762;2022-10-12T21:50:00;8.07;;;3.17;;
17504;SDS011;8870;50.950;11.762;2022-10-12T21:55:21;8.80;;;3.30;;
17504;SDS011;8870;50.950;11.762;2022-10-12T22:00:52;7.18;;;3.25;;
17504;SDS011;8870;50.950;11.762;2022-10-12T22:06:23;8.52;;;3.40;;
17504;SDS011;8870;50.950;11.762;2022-10-12T22:11:55;6.80;;;3.55;;
17504;SDS011;8870;50.950;11.762;2022-10-12T22:17:13;6.65;;;3.42;;
17504;SDS011;8870;50.950;11.762;2022-10-12T22:22:47;8.65;;;4.10;;
17504;SDS011;8870;50.950;11.762;2022-10-12T22:28:19;10.05;;;3.90;;
17504;SDS011;8870;50.950;11.762;2022-10-12T22:33:38;9.00;;;4.13;;
17504;SDS011;8870;50.950;11.762;2022-10-12T22:39:16;9.80;;;4.13;;
17504;SDS011;8870;50.950;11.762;2022-10-12T22:44:41;8.65;;;3.70;;
17504;SDS011;8870;50.950;11.762;2022-10-12T22:50:13;9.38;;;3.83;;
17504;SDS011;8870;50.950;11.762;2022-10-12T22:55:34;7.85;;;3.50;;
17504;SDS011;8870;50.950;11.762;2022-10-12T23:01:06;9.90;;;3.65;;
17504;SDS011;8870;50.950;11.762;2022-10-12T23:06:25;7.60;;;3.80;;
17504;SDS011;8870;50.950;11.762;2022-10-12T23:11:59;6.15;;;3.60;;
17504;SDS011;8870;50.950;11.762;2022-10-12T23:17:18;8.88;;;3.75;;
17504;SDS011;8870;50.950;11.762;2022-10-12T23:22:49;8.25;;;4.10;;
17504;SDS011;8870;50.950;11.762;2022-10-12T23:28:10;7.15;;;3.95;;
17504;SDS011;8870;50.950;11.762;2022-10-12T23:33:42;7.97;;;3.78;;
17504;SDS011;8870;50.950;11.762;2022-10-12T23:39:02;7.10;;;3.58;;
17504;SDS011;8870;50.950;11.762;2022-10-12T23:44:38;8.10;;;4.63;;
17504;SDS011;8870;50.950;11.762;2022-10-12T23:50:09;6.82;;;3.90;;
17504;SDS011;8870;50.950;11.762;2022-10-12T23:55:28;9.52;;;3.90;;
